Time;durP1;ratioP1;P1;durP2;ratioP2;P2;SDS_P1;SDS_P2;PMS_P1;PMS_P2;Temp;Humidity;BMP_temperature;BMP_pressure;BME280_temperature;BME280_humidity;BME280_pressure;Samples;Min_cycle;Max_cycle;Signal;HPM_P1;HPM_P2
2023/09/29 04:22:34;;;;;;;7.05;4.53;;;;;;;14.46;100.00;100419.78;5089516;28;20389;-67
2023/09/29 04:25:00;;;;;;;5.57;4.45;;;;;;;14.51;100.00;100422.72;5089368;28;20120;-67
2023/09/29 04:27:25;;;;;;;8.63;5.00;;;;;;;14.45;100.00;100421.63;5089254;28;20122;-66
2023/09/29 04:29:51;;;;;;;6.45;4.50;;;;;;;14.45;100.00;100418.94;5089344;28;20110;-66
2023/09/29 04:32:17;;;;;;;6.03;4.47;;;;;;;14.48;100.00;100409.72;5089320;28;20079;-67
2023/09/29 04:34:43;;;;;;;5.35;4.18;;;;;;;14.49;100.00;100424.78;5089223;28;20093;-66
2023/09/29 04:37:09;;;;;;;6.43;4.93;;;;;;;14.52;100.00;100429.75;5089187;28;20445;-67
2023/09/29 04:39:34;;;;;;;7.15;4.78;;;;;;;14.53;100.00;100434.06;5089208;28;20040;-67
2023/09/29 04:41:59;;;;;;;11.20;7.93;;;;;;;14.57;100.00;100443.41;5088853;28;20029;-66
2023/09/29 04:44:25;;;;;;;8.20;6.20;;;;;;;14.58;100.00;100445.88;5088912;28;20439;-67
2023/09/29 04:46:50;;;;;;;5.50;4.30;;;;;;;14.61;100.00;100444.69;5088988;28;20129;-66
2023/09/29 04:49:16;;;;;;;8.38;4.75;;;;;;;14.63;100.00;100442.63;5089028;28;20113;-65
2023/09/29 04:51:43;;;;;;;9.05;6.40;;;;;;;14.66;100.00;100447.59;5088941;28;20040;-66
2023/09/29 04:54:10;;;;;;;9.27;6.43;;;;;;;14.68;100.00;100450.91;5088649;28;20036;-66
2023/09/29 04:56:35;;;;;;;8.00;5.90;;;;;;;14.70;100.00;100448.84;5088715;28;20044;-66
2023/09/29 04:59:01;;;;;;;7.65;5.28;;;;;;;14.69;100.00;100449.06;5088767;28;20040;-66
2023/09/29 05:01:27;;;;;;;8.93;5.45;;;;;;;14.70;100.00;100440.81;5088680;28;20040;-66
2023/09/29 05:03:52;;;;;;;6.63;4.72;;;;;;;14.71;100.00;100445.16;5088474;28;20052;-66
2023/09/29 05:06:18;;;;;;;4.57;3.90;;;;;;;14.69;100.00;100446.38;5088734;28;20040;-66
2023/09/29 05:08:44;;;;;;;6.05;4.22;;;;;;;14.70;100.00;100445.34;5088631;28;20418;-66
2023/09/29 05:11:27;;;;;;;4.50;3.55;;;;;;;14.72;100.00;100452.16;5088469;28;20024;-66
2023/09/29 05:13:53;;;;;;;6.75;4.13;;;;;;;14.69;100.00;100447.22;5088520;28;20513;-66
2023/09/29 05:16:19;;;;;;;6.32;3.80;;;;;;;14.72;100.00;100445.97;5088462;28;20036;-66
2023/09/29 05:18:45;;;;;;;6.70;4.15;;;;;;;14.73;100.00;100442.28;5088451;28;20036;-66
2023/09/29 05:21:11;;;;;;;6.25;4.07;;;;;;;14.69;100.00;100447.22;5088177;28;20036;-66
2023/09/29 05:23:37;;;;;;;7.55;4.57;;;;;;;14.72;100.00;100445.97;5088100;28;20122;-67
2023/09/29 05:26:05;;;;;;;5.28;4.20;;;;;;;14.73;100.00;100443.09;5087189;28;20044;-67
2023/09/29 05:28:31;;;;;;;;;;;;;;;14.73;100.00;100442.28;5088793;28;20049;-67
2023/09/29 05:30:57;;;;;;;4.95;3.55;;;;;;;14.73;100.00;100447.63;5088313;28;19916;-67
2023/09/29 05:33:22;;;;;;;5.82;3.83;;;;;;;14.71;100.00;100439.78;5077476;28;20094;-66
2023/09/29 05:35:48;;;;;;;4.05;3.33;;;;;;;14.73;100.00;100443.09;5074577;28;20064;-67
2023/09/29 05:38:13;;;;;;;6.43;3.80;;;;;;;14.77;100.00;100435.50;5074952;28;20040;-67
2023/09/29 05:40:38;;;;;;;5.28;3.85;;;;;;;14.78;100.00;100439.84;5074564;28;20043;-67
2023/09/29 05:43:09;;;;;;;5.57;4.28;;;;;;;14.76;100.00;100437.34;5074463;28;20047;-66
2023/09/29 05:45:35;;;;;;;6.13;4.22;;;;;;;14.79;100.00;100442.31;5074513;28;20475;-67
2023/09/29 05:48:01;;;;;;;6.40;3.80;;;;;;;14.82;100.00;100441.09;5074540;28;20047;-66
2023/09/29 05:50:26;;;;;;;5.88;3.55;;;;;;;14.83;100.00;100438.22;5074576;28;20044;-66
2023/09/29 05:52:51;;;;;;;6.25;4.25;;;;;;;14.85;100.00;100436.16;5074150;28;20046;-67
2023/09/29 05:55:17;;;;;;;6.00;4.00;;;;;;;14.89;100.00;100448.16;5074128;28;20515;-67
2023/09/29 05:57:42;;;;;;;4.68;3.42;;;;;;;14.88;100.00;100448.38;5073067;28;20044;-67
2023/09/29 06:00:10;;;;;;;4.90;3.60;;;;;;;14.87;100.00;100455.59;5074145;28;20037;-67
2023/09/29 06:02:39;;;;;;;7.30;3.90;;;;;;;14.90;100.00;100457.03;5074201;28;20044;-66
2023/09/29 06:05:05;;;;;;;7.22;4.32;;;;;;;14.90;100.00;100454.38;5074061;28;20094;-67
2023/09/29 06:07:30;;;;;;;5.65;3.72;;;;;;;14.93;100.00;100457.50;5074270;28;20041;-67
2023/09/29 06:09:55;;;;;;;6.35;4.28;;;;;;;14.96;100.00;100458.94;5074026;28;20040;-66
2023/09/29 06:12:21;;;;;;;5.50;3.83;;;;;;;14.99;100.00;100453.16;5073873;28;20037;-67
2023/09/29 06:14:46;;;;;;;7.10;3.65;;;;;;;15.02;100.00;100463.53;5073787;28;20036;-66
2023/09/29 06:17:12;;;;;;;5.20;4.07;;;;;;;15.06;100.00;100458.56;5073754;28;20158;-64
2023/09/29 06:19:37;;;;;;;4.30;3.90;;;;;;;15.10;100.00;100455.31;5072609;28;20048;-67
2023/09/29 06:22:02;;;;;;;4.38;3.40;;;;;;;15.14;100.00;100461.13;5073375;28;20044;-67
2023/09/29 06:24:28;;;;;;;4.65;3.70;;;;;;;15.20;100.00;100460.34;5073360;28;20032;-67
2023/09/29 06:26:53;;;;;;;6.18;3.88;;;;;;;15.26;100.00;100464.06;5072020;28;20033;-66
2023/09/29 06:29:18;;;;;;;6.03;3.70;;;;;;;15.29;100.00;100464.50;5072154;28;20399;-66
2023/09/29 06:31:44;;;;;;;6.97;3.90;;;;;;;15.22;100.00;100452.91;5073579;28;20040;-67
2023/09/29 06:34:09;;;;;;;4.65;3.40;;;;;;;15.33;100.00;100454.22;5073026;28;20041;-66
2023/09/29 06:36:35;;;;;;;4.63;3.40;;;;;;;15.35;100.00;100452.97;5073407;28;20452;-67
2023/09/29 06:39:00;;;;;;;6.03;3.95;;;;;;;15.37;100.00;100445.53;5073318;28;20044;-67
2023/09/29 06:41:26;;;;;;;6.78;3.67;;;;;;;15.42;100.00;100450.31;5072118;28;20047;-67
2023/09/29 06:43:53;;;;;;;5.68;3.58;;;;;;;15.44;100.00;100449.06;5072360;28;20036;-66
2023/09/29 06:46:18;;;;;;;4.82;4.00;;;;;;;15.49;100.00;100445.81;5073121;28;20086;-66
2023/09/29 06:48:44;;;;;;;6.90;3.67;;;;;;;15.52;100.00;100453.47;5073369;28;20044;-66
2023/09/29 06:51:10;;;;;;;4.78;3.67;;;;;;;15.57;100.00;100453.66;5073180;28;20118;-66
2023/09/29 06:53:35;;;;;;;5.20;3.50;;;;;;;15.62;100.00;100462.00;5072870;28;20441;-66
2023/09/29 06:56:01;;;;;;;7.20;5.03;;;;;;;15.71;100.00;100463.50;5073027;28;20124;-66
2023/09/29 06:58:26;;;;;;;4.80;3.75;;;;;;;15.79;100.00;100462.47;5073118;28;20115;-66
2023/09/29 07:00:53;;;;;;;7.13;4.22;;;;;;;15.92;100.00;100462.50;5073050;28;20040;-66
2023/09/29 07:03:19;;;;;;;5.47;3.67;;;;;;;16.04;100.00;100465.44;5072826;28;20487;-67
2023/09/29 07:05:46;;;;;;;7.38;3.70;;;;;;;16.13;100.00;100463.38;5072966;28;20131;-67
2023/09/29 07:08:12;;;;;;;5.68;3.38;;;;;;;16.23;100.00;100475.38;5072775;28;20075;-67
2023/09/29 07:10:38;;;;;;;5.57;3.33;;;;;;;16.34;100.00;100476.63;5072880;28;20040;-66
2023/09/29 07:13:03;;;;;;;4.65;3.38;;;;;;;16.41;100.00;100474.78;5072560;28;20032;-67
2023/09/29 07:15:29;;;;;;;6.30;4.07;;;;;;;16.49;100.00;100476.44;5072686;28;20399;-67
2023/09/29 07:17:54;;;;;;;6.63;3.95;;;;;;;16.52;100.00;100478.72;5072752;28;20119;-65
2023/09/29 07:20:20;;;;;;;7.25;3.67;;;;;;;16.55;100.00;100480.97;5072556;28;20047;-67
2023/09/29 07:22:45;;;;;;;6.35;3.38;;;;;;;16.59;100.00;100484.09;5072271;28;20045;-67
2023/09/29 07:25:11;;;;;;;3.78;3.08;;;;;;;16.64;100.00;100497.75;5071401;28;20044;-65
2023/09/29 07:27:36;;;;;;;6.47;3.67;;;;;;;16.71;100.00;100504.81;5072603;28;20075;-67
2023/09/29 07:30:02;;;;;;;5.70;3.63;;;;;;;16.81;100.00;100493.63;5063073;28;20091;-66
2023/09/29 07:32:28;;;;;;;5.40;3.88;;;;;;;16.92;100.00;100490.31;5061473;28;20055;-66
2023/09/29 07:34:53;;;;;;;7.03;3.40;;;;;;;17.01;100.00;100490.91;5062829;28;20033;-67
2023/09/29 07:37:18;;;;;;;6.10;3.53;;;;;;;17.11;100.00;100474.34;5060976;28;20120;-66
2023/09/29 07:39:44;;;;;;;7.90;4.30;;;;;;;17.25;100.00;100476.78;5061990;28;20051;-66
2023/09/29 07:42:09;;;;;;;6.47;3.75;;;;;;;17.39;100.00;100479.44;5062751;28;20037;-66
2023/09/29 07:44:35;;;;;;;5.45;4.47;;;;;;;17.52;100.00;100477.53;5060593;28;20043;-66
2023/09/29 07:47:00;;;;;;;4.60;2.97;;;;;;;17.59;100.00;100475.63;5062384;28;20066;-66
2023/09/29 07:49:26;;;;;;;6.47;3.40;;;;;;;17.63;100.00;100476.88;5062019;28;20101;-66
2023/09/29 07:51:52;;;;;;;5.10;3.10;;;;;;;17.64;100.00;100481.22;5060577;28;20049;-66
2023/09/29 07:54:20;;;;;;;6.30;3.42;;;;;;;17.69;100.00;100477.88;5060633;28;20131;-66
2023/09/29 07:56:49;;;;;;;7.32;3.45;;;;;;;17.72;100.00;100479.34;5061351;28;20056;-66
2023/09/29 07:59:15;;;;;;;9.68;4.03;;;;;;;17.79;100.00;100488.22;5060850;28;20056;-66
2023/09/29 08:01:43;;;;;;;8.18;3.47;;;;;;;17.70;100.00;100449.91;5059738;28;20476;-67
2023/09/29 08:04:10;;;;;;;9.57;3.55;;;;;;;17.97;100.00;100479.44;5060319;28;20104;-66
2023/09/29 08:06:35;;;;;;;7.85;3.90;;;;;;;17.99;100.00;100477.34;5059244;28;20056;-66
2023/09/29 08:09:01;;;;;;;5.75;3.55;;;;;;;18.07;100.00;100483.31;5063811;28;20060;-57
2023/09/29 08:11:26;;;;;;;5.20;3.60;;;;;;;18.14;100.00;100489.50;5065751;28;20032;-54
2023/09/29 08:13:53;;;;;;;6.60;3.80;;;;;;;18.29;100.00;100489.19;5064439;28;20036;-55
2023/09/29 08:16:20;;;;;;;5.25;3.20;;;;;;;18.40;100.00;100485.81;5061329;28;20060;-56
2023/09/29 08:18:45;;;;;;;4.95;3.63;;;;;;;18.53;100.00;100490.28;5072166;28;20036;-55
2023/09/29 08:21:11;;;;;;;6.13;3.65;;;;;;;18.70;97.83;100480.59;5074224;28;20403;-55
2023/09/29 08:23:39;;;;;;;6.53;3.05;;;;;;;18.97;93.54;100480.34;5073954;28;20043;-58
2023/09/29 08:26:04;;;;;;;4.15;2.88;;;;;;;19.10;92.67;100474.81;5073917;28;20052;-56
2023/09/29 08:28:30;;;;;;;4.30;3.10;;;;;;;19.12;94.35;100482.72;5074882;28;20059;-57
2023/09/29 08:30:55;;;;;;;5.05;3.17;;;;;;;19.15;94.43;100483.06;5073138;28;20502;-60
2023/09/29 08:33:21;;;;;;;6.07;3.75;;;;;;;19.27;93.57;100485.88;5071565;28;20037;-64
2023/09/29 08:35:47;;;;;;;5.78;3.35;;;;;;;19.37;95.56;100485.34;5071052;28;20407;-65
2023/09/29 08:38:12;;;;;;;5.20;3.30;;;;;;;19.43;94.41;100484.44;5071414;28;20135;-62
2023/09/29 08:40:39;;;;;;;6.15;2.80;;;;;;;19.52;91.82;100489.31;5071691;28;20107;-64
2023/09/29 08:43:06;;;;;;;4.53;3.35;;;;;;;19.57;93.74;100485.94;5071288;28;20068;-67
2023/09/29 08:45:32;;;;;;;5.10;3.50;;;;;;;19.65;91.98;100487.53;5071615;28;20127;-67
2023/09/29 08:47:59;;;;;;;7.20;3.13;;;;;;;19.74;92.01;100491.56;5071669;28;20043;-67
2023/09/29 08:50:25;;;;;;;7.13;3.35;;;;;;;19.81;91.99;100492.31;5071416;28;20696;-67
2023/09/29 08:52:51;;;;;;;6.38;3.38;;;;;;;19.94;91.08;100492.13;5071425;28;20067;-67
2023/09/29 08:55:17;;;;;;;7.40;3.30;;;;;;;20.04;89.44;100489.72;5071451;28;20094;-67
2023/09/29 08:57:43;;;;;;;4.57;3.08;;;;;;;20.24;91.00;100497.53;5071537;28;20278;-67
2023/09/29 09:00:13;;;;;;;5.28;3.25;;;;;;;20.26;88.75;100500.84;5071416;28;20047;-68
2023/09/29 09:02:43;;;;;;;6.75;3.40;;;;;;;20.39;90.46;100489.00;5071383;28;20075;-68
2023/09/29 09:05:13;;;;;;;7.68;3.20;;;;;;;20.52;89.36;100501.53;5071443;28;20097;-68
2023/09/29 09:07:40;;;;;;;5.10;3.47;;;;;;;20.57;88.07;100494.34;5072443;28;20033;-68
2023/09/29 09:10:06;;;;;;;6.28;3.28;;;;;;;20.76;87.29;100494.28;5075159;28;20032;-67
2023/09/29 09:12:33;;;;;;;3.72;2.80;;;;;;;20.95;84.06;100505.81;5074877;28;20049;-68
2023/09/29 09:14:59;;;;;;;4.50;2.75;;;;;;;21.18;83.42;100504.97;5074899;28;20043;-68
2023/09/29 09:17:25;;;;;;;4.10;2.67;;;;;;;21.30;83.64;100503.94;5074823;28;20392;-68
2023/09/29 09:19:54;;;;;;;3.47;2.58;;;;;;;21.72;82.51;100505.63;5075040;28;20047;-68
2023/09/29 09:22:26;;;;;;;5.40;2.85;;;;;;;21.91;78.90;100507.94;5074765;28;20396;-67
2023/09/29 09:25:11;;;;;;;3.70;2.88;;;;;;;22.38;80.44;100496.06;5074733;28;20036;-69
2023/09/29 09:27:40;;;;;;;5.03;2.50;;;;;;;22.65;72.53;100494.34;5074836;28;20120;-68
2023/09/29 09:30:06;;;;;;;3.92;2.58;;;;;;;22.88;75.27;100497.97;5074809;28;20032;-68
2023/09/29 09:32:31;;;;;;;5.20;3.00;;;;;;;23.12;72.26;100504.03;5074593;28;20024;-67
2023/09/29 09:34:58;;;;;;;5.30;2.65;;;;;;;23.37;64.78;100501.69;5074175;28;20062;-68
2023/09/29 09:37:27;;;;;;;3.75;2.55;;;;;;;23.56;66.29;100500.31;5074569;28;20036;-68
2023/09/29 09:39:56;;;;;;;3.80;2.80;;;;;;;23.85;66.42;100496.59;5074682;28;20479;-67
2023/09/29 09:42:27;;;;;;;3.58;2.40;;;;;;;24.29;62.71;100494.59;5074493;28;20064;-67
2023/09/29 09:44:59;;;;;;;3.08;2.28;;;;;;;24.69;60.74;100496.06;5073202;28;20116;-68
2023/09/29 09:47:25;;;;;;;3.88;2.15;;;;;;;25.01;57.46;100493.28;5060888;28;20450;-68
2023/09/29 09:49:55;;;;;;;4.45;2.50;;;;;;;25.41;57.59;100501.72;5063352;28;20040;-68
2023/09/29 09:52:29;;;;;;;3.67;2.38;;;;;;;25.76;56.19;100494.00;5064892;28;20035;-68
2023/09/29 09:54:58;;;;;;;4.40;2.45;;;;;;;26.01;53.41;100490.50;5064507;28;20041;-65
2023/09/29 09:57:27;;;;;;;5.95;2.83;;;;;;;26.22;52.87;100481.28;5059504;28;20040;-68
2023/09/29 09:59:54;;;;;;;4.65;2.67;;;;;;;26.40;52.99;100493.59;5054242;28;20040;-68
2023/09/29 10:02:22;;;;;;;5.57;2.40;;;;;;;26.78;51.71;100501.25;5053850;28;20036;-66
2023/09/29 10:04:49;;;;;;;3.03;2.60;;;;;;;26.89;50.73;100495.78;5054093;28;20099;-66
2023/09/29 10:07:15;;;;;;;5.97;2.20;;;;;;;27.14;51.74;100492.22;5053990;28;20515;-66
2023/09/29 10:09:48;;;;;;;5.80;2.78;;;;;;;27.75;48.43;100495.56;5054125;28;20033;-66
2023/09/29 10:12:28;;;;;;;3.15;2.17;;;;;;;28.16;47.11;100483.56;5053916;28;20073;-66
2023/09/29 10:14:55;;;;;;;5.18;2.67;;;;;;;28.12;47.66;100491.53;5053820;28;20052;-66
2023/09/29 10:17:21;;;;;;;5.65;2.78;;;;;;;28.65;46.57;100483.47;5053842;28;20112;-66
2023/09/29 10:19:51;;;;;;;3.83;2.38;;;;;;;29.12;46.31;100479.22;5053679;28;20530;-67
2023/09/29 10:22:24;;;;;;;3.10;2.28;;;;;;;29.64;44.82;100488.50;5053785;28;20036;-67
2023/09/29 10:24:56;;;;;;;7.05;2.42;;;;;;;30.11;43.15;100484.84;5053811;28;20025;-67
2023/09/29 10:27:28;;;;;;;3.05;2.17;;;;;;;30.11;43.18;100481.28;5053735;28;20395;-67
2023/09/29 10:30:08;;;;;;;4.05;2.20;;;;;;;30.57;41.61;100475.03;5053803;28;20041;-68
2023/09/29 10:32:35;;;;;;;2.58;2.28;;;;;;;30.42;41.67;100467.88;5053558;28;20807;-67
2023/09/29 10:35:01;;;;;;;5.93;2.67;;;;;;;30.93;41.63;100472.50;5053499;28;20090;-68
2023/09/29 10:37:38;;;;;;;3.88;2.25;;;;;;;31.12;41.92;100477.94;5053495;28;20355;-67
2023/09/29 10:40:07;;;;;;;3.05;2.40;;;;;;;31.32;41.11;100475.63;5053548;28;20609;-67
2023/09/29 10:42:34;;;;;;;3.28;2.22;;;;;;;31.56;40.36;100472.66;5053519;28;20072;-67
2023/09/29 10:44:59;;;;;;;5.30;2.20;;;;;;;31.52;40.83;100479.06;5053115;28;20069;-66
2023/09/29 10:47:32;;;;;;;4.03;2.47;;;;;;;31.55;40.22;100479.25;5053299;28;20033;-66
2023/09/29 10:50:06;;;;;;;3.78;2.58;;;;;;;31.94;39.39;100479.81;5053341;28;20476;-67
2023/09/29 10:52:32;;;;;;;4.93;2.08;;;;;;;32.21;38.46;100478.91;5053283;28;20124;-67
2023/09/29 10:54:58;;;;;;;2.40;2.00;;;;;;;32.00;39.95;100479.41;5053077;28;20079;-67
2023/09/29 10:57:28;;;;;;;;;;;;;;;32.32;38.59;100472.03;5053492;28;20037;-67
2023/09/29 10:59:59;;;;;;;3.03;2.35;;;;;;;32.05;37.83;100472.97;5053238;28;19916;-67
2023/09/29 11:02:32;;;;;;;5.07;2.60;;;;;;;32.14;37.79;100476.59;5053042;28;20076;-67
2023/09/29 11:05:04;;;;;;;5.00;2.50;;;;;;;32.47;39.17;100468.94;5052991;28;20040;-67
2023/09/29 11:07:30;;;;;;;4.32;2.30;;;;;;;32.27;38.55;100470.22;5052981;28;20043;-67
2023/09/29 11:09:59;;;;;;;3.20;2.17;;;;;;;32.92;36.72;100464.19;5052977;28;20108;-67
2023/09/29 11:12:27;;;;;;;6.05;2.20;;;;;;;32.83;37.52;100448.72;5052805;28;20124;-67
2023/09/29 11:15:03;;;;;;;3.45;2.38;;;;;;;33.48;36.48;100457.09;5052706;28;20044;-67
2023/09/29 11:17:29;;;;;;;2.83;1.98;;;;;;;33.85;35.63;100457.66;5052639;28;20051;-67
2023/09/29 11:19:54;;;;;;;5.57;2.17;;;;;;;33.85;36.89;100448.56;5052823;28;20040;-67
2023/09/29 11:22:20;;;;;;;3.83;2.40;;;;;;;34.02;35.50;100445.81;5052698;28;20504;-67
2023/09/29 11:24:50;;;;;;;3.63;2.20;;;;;;;34.09;35.09;100443.38;5057792;28;20395;-66
2023/09/29 11:27:19;;;;;;;5.13;2.20;;;;;;;34.01;34.65;100431.19;5061555;28;20032;-66
2023/09/29 11:29:45;;;;;;;5.25;2.30;;;;;;;33.66;35.59;100443.34;5061064;28;20033;-67
2023/09/29 11:32:10;;;;;;;3.47;2.10;;;;;;;34.08;35.08;100433.47;5062625;28;20103;-67
2023/09/29 11:34:35;;;;;;;3.73;2.37;;;;;;;33.78;35.35;100426.09;5061444;28;20057;-67
2023/09/29 11:37:01;;;;;;;3.37;2.57;;;;;;;33.82;34.99;100429.84;5061714;28;20507;-67
2023/09/29 11:39:27;;;;;;;3.73;2.17;;;;;;;33.61;34.86;100424.97;5063029;28;20051;-66
2023/09/29 11:41:52;;;;;;;2.95;2.28;;;;;;;34.14;34.47;100417.53;5061072;28;20100;-67
2023/09/29 11:44:18;;;;;;;3.67;2.40;;;;;;;33.85;35.35;100423.69;5061907;28;20059;-67
2023/09/29 11:46:44;;;;;;;3.83;2.60;;;;;;;33.86;34.59;100422.56;5062493;28;20125;-67
2023/09/29 11:49:11;;;;;;;3.63;2.30;;;;;;;33.63;35.11;100413.59;5055023;28;20052;-67
2023/09/29 11:51:37;;;;;;;3.05;2.13;;;;;;;33.92;35.03;100424.88;5052069;28;20053;-66
2023/09/29 11:54:03;;;;;;;4.63;2.30;;;;;;;34.10;34.80;100406.28;5052051;28;20041;-67
2023/09/29 11:56:29;;;;;;;;;;;;;;;34.80;33.46;100398.66;5052613;28;20106;-67
2023/09/29 11:58:55;;;;;;;;;;;;;;;34.46;34.45;100410.66;5052696;28;19917;-67
2023/09/29 12:01:20;;;;;;;3.07;2.20;;;;;;;34.47;33.77;100415.06;5052089;28;20019;-55
2023/09/29 12:03:46;;;;;;;4.80;2.30;;;;;;;34.55;33.84;100411.44;5052101;28;20060;-55
2023/09/29 12:06:11;;;;;;;7.57;2.20;;;;;;;34.01;34.48;100402.75;5051949;28;20051;-67
2023/09/29 12:08:36;;;;;;;4.23;2.43;;;;;;;33.60;34.23;100417.03;5052004;28;20040;-67
2023/09/29 12:11:07;;;;;;;3.37;2.07;;;;;;;33.56;34.58;100410.50;5051969;28;20040;-68
2023/09/29 12:13:33;;;;;;;4.15;2.10;;;;;;;33.05;35.55;100411.97;5079023;28;20442;-68
2023/09/29 12:15:59;;;;;;;4.13;2.25;;;;;;;32.24;36.59;100413.00;5091899;28;20047;-69
2023/09/29 12:18:28;;;;;;;4.88;2.80;;;;;;;30.78;38.89;100413.13;5088637;28;20043;-68
2023/09/29 12:20:55;;;;;;;4.53;2.60;;;;;;;29.92;40.37;100409.84;5070497;28;20036;-67
2023/09/29 12:23:21;;;;;;;7.45;2.70;;;;;;;29.55;41.48;100416.19;5070352;28;20055;-67
2023/09/29 12:25:47;;;;;;;4.13;2.30;;;;;;;29.43;42.41;100413.84;5051629;28;20033;-67
2023/09/29 12:28:12;;;;;;;3.33;2.13;;;;;;;28.92;43.02;100417.19;5050671;28;20044;-66
2023/09/29 12:30:37;;;;;;;3.30;2.40;;;;;;;28.58;44.47;100418.06;5051538;28;20404;-67
2023/09/29 12:33:03;;;;;;;6.47;2.75;;;;;;;28.35;44.93;100424.28;5054081;28;20055;-67
2023/09/29 12:35:29;;;;;;;5.55;2.85;;;;;;;27.80;45.94;100429.06;5058621;28;20116;-67
2023/09/29 12:37:55;;;;;;;3.75;3.00;;;;;;;27.70;46.80;100429.09;5060519;28;20028;-66
2023/09/29 12:40:20;;;;;;;4.00;2.78;;;;;;;27.59;47.75;100439.28;5061284;28;20497;-66
2023/09/29 12:42:50;;;;;;;5.35;2.63;;;;;;;27.35;49.01;100447.31;5060897;28;20527;-66
2023/09/29 12:45:21;;;;;;;3.15;2.38;;;;;;;27.47;49.28;100447.81;5063213;28;20037;-66
2023/09/29 12:47:48;;;;;;;4.22;2.60;;;;;;;27.37;50.22;100452.47;5062017;28;20104;-66
2023/09/29 12:50:15;;;;;;;4.38;2.85;;;;;;;27.49;50.08;100450.25;5063135;28;20194;-66
2023/09/29 12:52:40;;;;;;;2.88;2.13;;;;;;;27.74;49.70;100446.59;5064424;28;20175;-66
2023/09/29 12:55:07;;;;;;;5.03;2.13;;;;;;;27.93;49.71;100446.75;5065311;28;20107;-66
2023/09/29 12:57:32;;;;;;;8.05;2.55;;;;;;;28.23;49.27;100457.47;5065054;28;20037;-66
2023/09/29 12:59:59;;;;;;;3.33;2.08;;;;;;;28.41;49.23;100456.00;5063928;28;20047;-66
2023/09/29 13:02:27;;;;;;;5.13;2.20;;;;;;;28.73;48.06;100460.13;5064699;28;20043;-66
2023/09/29 13:04:53;;;;;;;4.95;2.08;;;;;;;29.32;46.88;100461.69;5064196;28;20028;-66
2023/09/29 13:07:19;;;;;;;4.85;2.30;;;;;;;29.68;45.47;100464.84;5064689;28;20055;-66
2023/09/29 13:09:44;;;;;;;4.45;2.00;;;;;;;30.00;44.65;100451.22;5056533;28;20500;-66
2023/09/29 13:12:10;;;;;;;3.53;2.00;;;;;;;30.06;43.83;100459.34;5055261;28;20049;-65
2023/09/29 13:14:36;;;;;;;6.45;2.30;;;;;;;30.34;44.10;100461.13;5038212;28;20040;-65
2023/09/29 13:17:02;;;;;;;3.22;1.80;;;;;;;30.60;43.21;100457.97;5066055;28;20044;-65
2023/09/29 13:19:28;;;;;;;5.68;2.05;;;;;;;31.01;42.77;100461.63;5062087;28;20044;-65
2023/09/29 13:21:54;;;;;;;3.92;2.17;;;;;;;31.05;42.38;100470.91;5045974;28;20025;-65
2023/09/29 13:24:23;;;;;;;2.93;1.90;;;;;;;30.88;42.19;100470.66;5060420;28;20059;-65
2023/09/29 13:26:48;;;;;;;3.38;2.30;;;;;;;30.63;43.10;100482.91;5054940;28;20037;-66
2023/09/29 13:29:19;;;;;;;5.28;2.30;;;;;;;30.12;43.99;100480.16;5054909;28;20094;-65
2023/09/29 13:31:45;;;;;;;5.75;2.63;;;;;;;28.99;46.52;100490.88;5054656;28;20037;-65
2023/09/29 13:34:11;;;;;;;7.85;2.55;;;;;;;28.79;47.00;100500.88;5054510;28;20048;-65
2023/09/29 13:36:37;;;;;;;3.88;2.15;;;;;;;28.10;47.59;100493.72;5062464;28;20059;-65
2023/09/29 13:39:04;;;;;;;6.78;2.67;;;;;;;27.63;49.45;100499.69;5074645;28;20059;-65
2023/09/29 13:41:33;;;;;;;6.65;2.38;;;;;;;27.19;50.37;100503.97;5074602;28;20535;-65
2023/09/29 13:43:58;;;;;;;6.45;2.60;;;;;;;27.21;50.99;100512.69;5074171;28;20047;-65
2023/09/29 13:46:26;;;;;;;5.93;2.95;;;;;;;27.16;51.03;100514.63;5069507;28;20040;-65
2023/09/29 13:48:51;;;;;;;6.93;3.45;;;;;;;27.18;50.28;100513.25;5063914;28;20589;-65
2023/09/29 13:51:17;;;;;;;4.63;2.53;;;;;;;27.25;49.89;100521.97;5062994;28;20048;-65
2023/09/29 13:53:42;;;;;;;7.00;4.15;;;;;;;26.75;51.35;100525.59;5063492;28;20134;-65
2023/09/29 13:56:12;;;;;;;5.35;2.80;;;;;;;26.91;51.63;100526.38;5063062;28;20107;-65
2023/09/29 13:58:38;;;;;;;5.97;3.00;;;;;;;26.59;52.57;100530.22;5062528;28;20404;-66
2023/09/29 14:01:09;;;;;;;5.20;3.38;;;;;;;26.48;52.46;100529.41;5062796;28;20020;-65
2023/09/29 14:03:35;;;;;;;7.80;3.83;;;;;;;26.23;52.62;100535.59;5063472;28;20567;-66
2023/09/29 14:06:01;;;;;;;7.82;3.35;;;;;;;26.19;53.21;100539.97;5064568;28;20108;-65
2023/09/29 14:08:26;;;;;;;9.63;4.22;;;;;;;25.85;52.83;100545.03;5062633;28;20033;-65
2023/09/29 14:10:52;;;;;;;9.48;4.22;;;;;;;25.80;52.14;100549.66;5063285;28;20090;-66
2023/09/29 14:13:18;;;;;;;8.90;3.90;;;;;;;25.25;53.72;100561.91;5060390;28;20056;-65
2023/09/29 14:15:43;;;;;;;8.57;4.28;;;;;;;25.26;53.97;100553.44;5063764;28;20033;-65
2023/09/29 14:18:09;;;;;;;7.63;3.90;;;;;;;25.18;54.70;100559.41;5062754;28;20039;-65
2023/09/29 14:20:35;;;;;;;8.30;4.40;;;;;;;25.05;54.39;100568.03;5049500;28;20115;-65
2023/09/29 14:23:02;;;;;;;10.45;4.32;;;;;;;24.90;56.28;100565.94;5056238;28;20510;-65
2023/09/29 14:25:28;;;;;;;10.38;4.93;;;;;;;24.84;56.72;100565.13;5053800;28;20041;-66
2023/09/29 14:27:53;;;;;;;9.45;4.72;;;;;;;24.71;56.47;100562.78;5053584;28;20119;-65
2023/09/29 14:30:19;;;;;;;13.18;5.03;;;;;;;24.65;57.16;100566.59;5053777;28;20059;-65
2023/09/29 14:32:44;;;;;;;9.35;4.70;;;;;;;24.67;56.63;100569.84;5053414;28;20051;-65
2023/09/29 14:35:11;;;;;;;11.32;5.30;;;;;;;24.71;56.90;100570.16;5053444;28;20086;-65
2023/09/29 14:37:41;;;;;;;10.50;5.35;;;;;;;24.59;56.66;100582.06;5053523;28;20488;-65
2023/09/29 14:40:08;;;;;;;11.45;6.35;;;;;;;24.55;55.51;100582.81;5053478;28;20727;-65
2023/09/29 14:42:34;;;;;;;13.50;6.45;;;;;;;24.47;56.98;100586.81;5053264;28;20408;-65
2023/09/29 14:44:59;;;;;;;13.20;6.15;;;;;;;24.36;57.34;100593.22;5053186;28;20048;-65
2023/09/29 14:47:25;;;;;;;12.43;6.30;;;;;;;24.34;56.59;100595.41;5053274;28;20045;-65
2023/09/29 14:49:51;;;;;;;13.10;6.75;;;;;;;24.38;57.53;100606.59;5053322;28;20033;-66
2023/09/29 14:52:17;;;;;;;14.23;7.07;;;;;;;24.22;58.25;100608.28;5053192;28;20041;-66
2023/09/29 14:54:43;;;;;;;13.82;7.75;;;;;;;24.15;56.98;100602.22;5052937;28;20043;-65
2023/09/29 14:57:08;;;;;;;15.70;7.78;;;;;;;24.05;58.09;100608.34;5052928;28;20029;-64
2023/09/29 14:59:33;;;;;;;14.90;7.13;;;;;;;24.17;58.08;100600.06;5053211;28;20408;-65
2023/09/29 15:01:59;;;;;;;13.95;6.65;;;;;;;24.21;59.29;100612.09;5053033;28;20059;-67
2023/09/29 15:04:24;;;;;;;14.23;7.15;;;;;;;23.97;60.08;100623.22;5052609;28;20582;-64
2023/09/29 15:06:50;;;;;;;15.30;6.63;;;;;;;23.95;60.62;100627.28;5052248;28;20041;-64
2023/09/29 15:09:15;;;;;;;17.23;8.40;;;;;;;24.06;59.58;100631.75;5052921;28;20423;-65
2023/09/29 15:11:41;;;;;;;17.98;8.43;;;;;;;24.13;58.79;100631.59;5052777;28;20041;-65
2023/09/29 15:14:06;;;;;;;18.98;8.45;;;;;;;24.24;58.01;100634.16;5052546;28;20082;-65
2023/09/29 15:16:33;;;;;;;19.75;9.60;;;;;;;24.28;58.65;100640.75;5052753;28;20411;-65
2023/09/29 15:19:00;;;;;;;14.98;8.15;;;;;;;24.19;59.71;100646.88;5052690;28;20115;-65
2023/09/29 15:21:26;;;;;;;18.88;9.00;;;;;;;24.15;58.21;100651.22;5052631;28;20040;-65
2023/09/29 15:23:53;;;;;;;19.00;9.82;;;;;;;24.10;58.37;100650.06;5052406;28;20496;-65
2023/09/29 15:26:20;;;;;;;;;;;;;;;23.98;58.22;100657.50;5053001;28;20061;-65
2023/09/29 15:28:45;;;;;;;23.60;10.60;;;;;;;23.87;56.71;100655.75;5052611;28;19974;-66
2023/09/29 15:31:10;;;;;;;26.92;11.43;;;;;;;23.81;56.47;100643.16;5052569;28;20045;-65
2023/09/29 15:33:36;;;;;;;22.02;10.30;;;;;;;23.57;56.79;100647.94;5052229;28;20045;-65
2023/09/29 15:36:01;;;;;;;25.20;11.63;;;;;;;23.52;55.67;100645.97;5052368;28;20041;-65
2023/09/29 15:38:27;;;;;;;24.75;11.43;;;;;;;23.48;55.87;100654.88;5052305;28;20111;-65
2023/09/29 15:40:52;;;;;;;26.63;12.68;;;;;;;23.31;57.37;100652.16;5052382;28;20479;-66